Grand Rapids, Canada
Current Conditions -  °F | °C
As of 3:00 PM on Saturday 25 Oct 2014 (Local Time) from CYNE Reporting Station
Overcast Overcast  
Wind Chill: 29°   Ceiling: 2600
Heat Index: 37°   Visibility: 9mi
Dew Point: 28°   Wind: 15mph
Humidity: 70%   Direction: 310°NW
Pressure: 29.86"   Gusts: 21mph
Location:  53.18°N, 99.28°W
Report Text: CYNE 252000Z AUTO 31013G18KT 9SM BKN026 OVC037 03/M02 A2986 RMK SLP124
Loading
Personal Weather Stations






























Interactive Weather Map
Tropical Storm Tracking
New forecast layout! Learn more

10-Day Weather Forecast

Advertisements
Track Severe Weather on mobile